Etusivu
METAR-TAF:

METAR-TAF

Lentoasemat :

Air Force Base Hoedspruit - Eastgate Airport

Hoedspruit, Etelä-Afrikka

Leveyspiiri: 24-21-17S, Pituuspiiri: 31-03-01E, korkeus merenpinnasta: 531 m

Tämänhetkinen sää

Tämä raportti tehtiin 1 tunti ja 0 minuuttia sitten, kello 20.00 UTC
Tuuli 4 kn luoteesta
Lämpötila 21°C
Kosteus 60%
Ilmanpaine 1023 hPa

METAR: FAHS 222000Z AUTO 32004KT //// // ////// 21/13 Q1023

Aika: 23:00 (21:00 UTC)

Sääennuste

Tämä raportti tehtiin 12 tuntia ja 0 minuuttia sitten, kello 09.00 UTC
Ennuste voimassa 22. päivästä klo 10 UTC - 22. päivään klo 18 UTC
Tuuli 10 kn pohjoisen/luoteesta
Näkyvyys 10 km tai enemmän
Hajanaisia pilviä 2000 ft:n korkeudessa
Tulossa
22. päivästä klo 15 UTC - 22. päivään klo 17 UTC
Tuuli 3 kn eri suunnista

TAF: FAHS 220900Z 2210/2218 33010KT 9999 SCT020 TX27/2215Z TN17/2218Z BECMG 2215/2217 VRB03KT

Säähavainnot ja -ennusteet yli 4000 lentoasemalta (METAR- ja TAF-raportit).

Käytössä olevat sääasemat on merkitty karttaan keltaisilla ja punaisilla pisteillä.

Aseta hiiri pisteen päälle nähdäksesi sääaseman nimen.

Klikkaa sitten nähdäksesi säähavainnot ja -ennusteet.

Kartan vaihtaminen: klikkaa mustalla rastilla varustettuja vihreitä pisteitä, niin voit zoomata sisään; viivalla varustettua vihreää pistettä, niin voit zoomata ulos tai vihreitä nuolia, niin pääset viereisille kartoille.


METAR-TAF: